الصفحة الرئيسية
METAR-TAF:

METAR-TAF

مطار :

Richmond, أستراليا

دائرة عرض: 20-42-07S, خط طول: 143-06-53E, ارتفاع: 206 متر

مراقبة الطقس الحالي

تاريخ ووقت الإصدار 33 دقيقة قبل الساعة 21:00UTC
ريح 7 عقدة من الشرق
درجة الحرارة 6°درجة مئوية
الرطوبة 87%
ضغط 1019 hPa
الرؤية 10 كم أو أكثر

METAR: YRMD 252100Z AUTO 10007KT 9999 // NCD 06/04 Q1019

زمن: 07:33 (21:33 UTC)

توقعات

تاريخ ووقت الإصدار 2ساعات و 49 دقيقة قبل الساعة 18:44UTC
التوقعات صالحة من25 الساعة 20 UTC إلى 26 الساعة 08 UTC
ريح 10 عقدة من الشرق/الجنوب الشرقي
الرؤية 10 كم أو أكثر
الغيوم لا تقل 1500 م ولا وجود لمزنة ركامية السحاب الأسود

TAF: YRMD 251844Z 2520/2608 11010KT CAVOK

أرصاد الطقس والتوقعات من أكثر من 4000 مطار (تقارير الطقس للمطار METAR والتنبؤ بالطقس بالمطارTAF).

المحطات المتاحة هي النقط الصفراء والحمراء على الخريطة.

حرك المؤشر فوق النقطة لمعرفة اسم المحطة.

ثم انقر لمعرفة أرصاد وتوقعات الطقس.

لتغيير الخارطة: اضغط على الأزرار الخضراء مع رمز الصليب الأسود للتكبير. على الزر الأخضر مع شرطة للتصغير، أو على الأسهم الخضراء للخرائط المجاورة.


METAR-TAF: